Terminal Aerodrome Forecast
Issued by NWS

Home | Current Version | Previous Version | Text Only | Print | Product List | Glossary On
Versions: 1 2 3 4 5 6 7 8 9 10 11 12 13 14 15 16 17
000
FTUS45 KTFX 202000 AAA
TAFGTF
TAF AMD
KGTF 202008Z 2020/2118 28014KT P6SM VCTS SCT060CB OVC080
      TEMPO 2021/2023 33012G25KT
     FM210100 VRB05KT P6SM -SHRA SCT035 BKN060
     FM210800 31004KT P6SM SCT070 BKN150
     FM211500 32005KT P6SM -RA SCT020 BKN070=

USA.gov is the U.S. government's official web portal to all federal, state and local government web resources and services.